Time;durP1;ratioP1;P1;durP2;ratioP2;P2;SDS_P1;SDS_P2;PMS_P1;PMS_P2;Temp;Humidity;BMP_temperature;BMP_pressure;BME280_temperature;BME280_humidity;BME280_pressure;Samples;Min_cycle;Max_cycle;Signal;HPM_P1;HPM_P2
2024/01/16 00:00:02;;;;;;;376.07;146.60;;;;;;;;;;5000707;28;20213;-51
2024/01/16 00:02:28;;;;;;;355.97;137.93;;;;;;;;;;5004594;28;20232;-51
2024/01/16 00:04:54;;;;;;;388.33;153.80;;;;;;;;;;5001355;28;20209;-51
2024/01/16 00:07:19;;;;;;;379.13;151.37;;;;;;;;;;5008377;28;20247;-51
2024/01/16 00:09:46;;;;;;;395.07;150.37;;;;;;;;;;5004755;28;20671;-52
2024/01/16 00:12:12;;;;;;;379.57;152.30;;;;;;;;;;5004707;28;20219;-51
2024/01/16 00:14:38;;;;;;;383.50;148.20;;;;;;;;;;5001803;28;20274;-52
2024/01/16 00:17:04;;;;;;;377.23;143.33;;;;;;;;;;5005664;28;21174;-51
2024/01/16 00:19:30;;;;;;;369.97;139.77;;;;;;;;;;5008614;28;20210;-52
2024/01/16 00:21:56;;;;;;;403.23;159.77;;;;;;;;;;5000261;28;20681;-51
2024/01/16 00:24:23;;;;;;;393.27;152.33;;;;;;;;;;5003692;28;20275;-51
2024/01/16 00:26:49;;;;;;;358.23;138.77;;;;;;;;;;5009164;28;20217;-51
2024/01/16 00:29:16;;;;;;;417.07;169.20;;;;;;;;;;5003824;28;20467;-52
2024/01/16 00:31:42;;;;;;;396.97;155.80;;;;;;;;;;5003515;28;20192;-52
2024/01/16 00:34:08;;;;;;;386.03;153.13;;;;;;;;;;5012320;28;20222;-50
2024/01/16 00:36:34;;;;;;;377.10;146.40;;;;;;;;;;5001972;28;20735;-51
2024/01/16 00:39:00;;;;;;;370.83;142.23;;;;;;;;;;5005645;28;20236;-51
2024/01/16 00:41:26;;;;;;;377.70;148.70;;;;;;;;;;5008012;28;20224;-52
2024/01/16 00:43:53;;;;;;;363.57;139.57;;;;;;;;;;5004010;28;20541;-51
2024/01/16 00:46:19;;;;;;;392.27;157.60;;;;;;;;;;5002275;28;20208;-51
2024/01/16 00:48:45;;;;;;;348.43;134.53;;;;;;;;;;5006458;28;20674;-51
2024/01/16 00:51:11;;;;;;;376.03;144.97;;;;;;;;;;5003511;28;20673;-52
2024/01/16 00:53:40;;;;;;;388.33;153.13;;;;;;;;;;4999925;28;20479;-52
2024/01/16 00:56:06;;;;;;;404.03;160.00;;;;;;;;;;5001237;28;20188;-52
2024/01/16 00:58:32;;;;;;;358.90;139.67;;;;;;;;;;5008543;28;20679;-52
2024/01/16 01:00:58;;;;;;;399.73;156.83;;;;;;;;;;5001482;28;20307;-51
2024/01/16 01:03:24;;;;;;;387.40;154.20;;;;;;;;;;5005277;28;20413;-51
2024/01/16 01:05:50;;;;;;;389.73;149.80;;;;;;;;;;5010137;28;20813;-51
2024/01/16 01:08:16;;;;;;;392.17;152.43;;;;;;;;;;5002558;28;20435;-51
2024/01/16 01:10:42;;;;;;;407.77;158.70;;;;;;;;;;5003315;28;20191;-52
2024/01/16 01:13:08;;;;;;;387.90;151.70;;;;;;;;;;5003914;28;20507;-52
2024/01/16 01:15:34;;;;;;;428.57;172.03;;;;;;;;;;5005805;28;20205;-51
2024/01/16 01:18:00;;;;;;;381.03;145.57;;;;;;;;;;5005324;28;20244;-51
2024/01/16 01:20:26;;;;;;;424.93;164.53;;;;;;;;;;5002858;28;20216;-52
2024/01/16 01:22:52;;;;;;;362.90;140.30;;;;;;;;;;5006202;28;20197;-51
2024/01/16 01:25:18;;;;;;;421.37;169.67;;;;;;;;;;5001422;28;20212;-51
2024/01/16 01:27:44;;;;;;;392.17;152.50;;;;;;;;;;4996859;28;20217;-51
2024/01/16 01:30:10;;;;;;;427.30;169.37;;;;;;;;;;5003152;28;20228;-51
2024/01/16 01:32:36;;;;;;;375.53;146.23;;;;;;;;;;5000922;28;20217;-52
2024/01/16 01:35:03;;;;;;;359.50;137.30;;;;;;;;;;5006913;28;20255;-51
2024/01/16 01:37:28;;;;;;;360.43;136.37;;;;;;;;;;5004117;28;20177;-51
2024/01/16 01:39:55;;;;;;;367.60;141.13;;;;;;;;;;5010527;28;20223;-51
2024/01/16 01:42:20;;;;;;;391.87;154.80;;;;;;;;;;5001268;28;20229;-51
2024/01/16 01:44:46;;;;;;;397.63;157.10;;;;;;;;;;5004244;28;20675;-52
2024/01/16 01:47:12;;;;;;;384.57;147.23;;;;;;;;;;5003505;28;20738;-52
2024/01/16 01:49:39;;;;;;;370.17;142.60;;;;;;;;;;5004249;28;20209;-51
2024/01/16 01:52:05;;;;;;;362.30;134.67;;;;;;;;;;4999823;28;20223;-52
2024/01/16 01:54:32;;;;;;;408.80;162.97;;;;;;;;;;5002486;28;20296;-50
2024/01/16 01:56:58;;;;;;;418.67;162.87;;;;;;;;;;4997370;28;20303;-51
2024/01/16 01:59:25;;;;;;;405.47;157.53;;;;;;;;;;4999653;28;20300;-51
2024/01/16 02:01:55;;;;;;;383.97;147.57;;;;;;;;;;4998042;28;20277;-52
2024/01/16 02:04:22;;;;;;;393.30;154.83;;;;;;;;;;5002375;28;20224;-51
2024/01/16 02:06:48;;;;;;;376.67;146.60;;;;;;;;;;4999133;28;20312;-51
2024/01/16 02:09:14;;;;;;;384.50;146.03;;;;;;;;;;5000464;28;20227;-51
2024/01/16 02:11:44;;;;;;;360.57;138.80;;;;;;;;;;4997967;28;20758;-51
2024/01/16 02:14:10;;;;;;;417.13;163.30;;;;;;;;;;5003131;28;20526;-51
2024/01/16 02:16:40;;;;;;;375.63;143.87;;;;;;;;;;5006128;28;20189;-51
2024/01/16 02:19:06;;;;;;;346.73;134.27;;;;;;;;;;5005787;28;20306;-51
2024/01/16 02:21:36;;;;;;;398.17;154.47;;;;;;;;;;4997641;28;20302;-51
2024/01/16 02:24:03;;;;;;;392.27;150.40;;;;;;;;;;4998653;28;20262;-52
2024/01/16 02:26:30;;;;;;;387.37;152.87;;;;;;;;;;5002246;28;20220;-51
2024/01/16 02:28:56;;;;;;;413.73;159.00;;;;;;;;;;5003342;28;21051;-52
2024/01/16 02:31:22;;;;;;;405.63;156.93;;;;;;;;;;4996107;28;20683;-52
2024/01/16 02:33:48;;;;;;;367.53;141.77;;;;;;;;;;5001862;28;20224;-51
2024/01/16 02:36:14;;;;;;;398.03;159.73;;;;;;;;;;5002446;28;20300;-51
2024/01/16 02:38:40;;;;;;;410.50;159.50;;;;;;;;;;5000242;28;20235;-51
2024/01/16 02:41:07;;;;;;;399.60;156.20;;;;;;;;;;5001861;28;20280;-51
2024/01/16 02:43:33;;;;;;;397.00;153.37;;;;;;;;;;5004820;28;20247;-52
2024/01/16 02:45:59;;;;;;;357.97;135.07;;;;;;;;;;4996419;28;20321;-51
2024/01/16 02:48:25;;;;;;;410.73;162.50;;;;;;;;;;4997807;28;20313;-52
2024/01/16 02:50:51;;;;;;;411.47;158.20;;;;;;;;;;4996372;28;20219;-51
2024/01/16 02:53:17;;;;;;;392.83;149.87;;;;;;;;;;4997396;28;20204;-51
2024/01/16 02:55:43;;;;;;;398.73;156.87;;;;;;;;;;5001997;28;20188;-51
2024/01/16 02:58:09;;;;;;;392.50;155.93;;;;;;;;;;5000526;28;20224;-51
2024/01/16 03:00:35;;;;;;;392.47;152.60;;;;;;;;;;4990764;28;20241;-52
2024/01/16 03:03:01;;;;;;;372.57;142.50;;;;;;;;;;4998927;28;23670;-52
2024/01/16 03:05:27;;;;;;;398.90;156.93;;;;;;;;;;4994847;28;22107;-51
2024/01/16 03:07:52;;;;;;;354.50;136.10;;;;;;;;;;5006307;28;20184;-52
2024/01/16 03:10:18;;;;;;;359.33;139.90;;;;;;;;;;5004268;28;20258;-51
2024/01/16 03:12:44;;;;;;;384.50;147.30;;;;;;;;;;4997834;28;20273;-52
2024/01/16 03:15:10;;;;;;;403.63;154.90;;;;;;;;;;4995216;28;20829;-51
2024/01/16 03:17:36;;;;;;;376.63;147.43;;;;;;;;;;4997305;28;20297;-50
2024/01/16 03:20:03;;;;;;;371.33;143.13;;;;;;;;;;4998815;28;20279;-52
2024/01/16 03:22:29;;;;;;;414.47;164.97;;;;;;;;;;5004922;28;20239;-52
2024/01/16 03:24:55;;;;;;;420.13;163.00;;;;;;;;;;5001036;28;20224;-51
2024/01/16 03:27:21;;;;;;;410.77;161.30;;;;;;;;;;4997328;28;20333;-54
2024/01/16 03:29:47;;;;;;;385.77;146.23;;;;;;;;;;4998654;28;20243;-54
2024/01/16 03:32:13;;;;;;;364.70;138.63;;;;;;;;;;4998897;28;20197;-54
2024/01/16 03:34:40;;;;;;;366.97;138.53;;;;;;;;;;4998297;28;20188;-54
2024/01/16 03:37:06;;;;;;;366.37;140.80;;;;;;;;;;4999706;28;20220;-54
2024/01/16 03:39:32;;;;;;;381.23;145.27;;;;;;;;;;4999975;28;20283;-54
2024/01/16 03:42:35;;;;;;;381.90;146.03;;;;;;;;;;4996148;28;20518;-54
2024/01/16 03:45:01;;;;;;;404.13;157.87;;;;;;;;;;4994437;28;20238;-53
2024/01/16 03:47:27;;;;;;;378.43;144.07;;;;;;;;;;4995164;28;20224;-54
2024/01/16 03:49:53;;;;;;;391.00;152.30;;;;;;;;;;4999381;28;20180;-53
2024/01/16 03:52:18;;;;;;;346.33;134.13;;;;;;;;;;5001612;28;20711;-54
2024/01/16 03:54:44;;;;;;;375.37;147.83;;;;;;;;;;4999762;28;20211;-54
2024/01/16 03:57:10;;;;;;;369.67;142.77;;;;;;;;;;4998886;28;20557;-53
2024/01/16 03:59:39;;;;;;;383.47;152.40;;;;;;;;;;4996586;28;20795;-54
2024/01/16 04:02:05;;;;;;;451.47;181.27;;;;;;;;;;4993771;28;20192;-54
2024/01/16 04:04:31;;;;;;;380.50;148.93;;;;;;;;;;5000098;28;20231;-54
2024/01/16 04:06:57;;;;;;;365.40;140.70;;;;;;;;;;4997500;28;20227;-53
2024/01/16 04:09:23;;;;;;;376.07;143.13;;;;;;;;;;5000055;28;20212;-54
2024/01/16 04:11:52;;;;;;;379.77;146.43;;;;;;;;;;4992742;28;20224;-53
2024/01/16 04:14:18;;;;;;;381.07;146.40;;;;;;;;;;4997284;28;20231;-54
2024/01/16 04:16:44;;;;;;;383.57;148.23;;;;;;;;;;4999936;28;20649;-54
2024/01/16 04:19:10;;;;;;;381.63;147.23;;;;;;;;;;5003395;28;20475;-54
2024/01/16 04:21:37;;;;;;;403.30;159.57;;;;;;;;;;4995804;28;20311;-53
2024/01/16 04:24:03;;;;;;;376.60;144.67;;;;;;;;;;4999564;28;20220;-54
2024/01/16 04:26:29;;;;;;;389.70;147.93;;;;;;;;;;5010535;28;20456;-54
2024/01/16 04:28:55;;;;;;;383.73;148.43;;;;;;;;;;5001288;28;20400;-53
2024/01/16 04:31:22;;;;;;;427.30;169.53;;;;;;;;;;5005776;28;20288;-53
2024/01/16 04:33:48;;;;;;;389.07;152.70;;;;;;;;;;5009072;28;20232;-54
2024/01/16 04:36:14;;;;;;;378.87;149.20;;;;;;;;;;5006280;28;20217;-53
2024/01/16 04:38:40;;;;;;;389.90;150.50;;;;;;;;;;5003920;28;20225;-54
2024/01/16 04:41:05;;;;;;;356.67;137.93;;;;;;;;;;5002732;28;20193;-54
2024/01/16 04:43:31;;;;;;;376.37;146.67;;;;;;;;;;5004975;28;20263;-53
2024/01/16 04:45:57;;;;;;;383.17;148.10;;;;;;;;;;5001432;28;20220;-53
2024/01/16 04:48:23;;;;;;;394.10;152.47;;;;;;;;;;5003896;28;20223;-54
2024/01/16 04:50:49;;;;;;;360.70;139.53;;;;;;;;;;5000521;28;20220;-53
2024/01/16 04:53:15;;;;;;;376.10;145.67;;;;;;;;;;5004350;28;20679;-53
2024/01/16 04:55:41;;;;;;;391.43;152.53;;;;;;;;;;5007818;28;20424;-54
2024/01/16 05:01:11;;;;;;;386.43;149.77;;;;;;;;;;5004911;28;20367;-54
2024/01/16 05:03:37;;;;;;;421.83;164.90;;;;;;;;;;5005326;28;20312;-54
2024/01/16 05:06:03;;;;;;;402.90;156.93;;;;;;;;;;5000081;28;20209;-54
2024/01/16 05:08:30;;;;;;;432.97;169.93;;;;;;;;;;5003520;28;20619;-54
2024/01/16 05:10:56;;;;;;;412.30;159.00;;;;;;;;;;5004607;28;20173;-54
2024/01/16 05:13:22;;;;;;;393.53;150.30;;;;;;;;;;5003889;28;20324;-54
2024/01/16 05:15:48;;;;;;;371.77;143.47;;;;;;;;;;5006560;28;20226;-54
2024/01/16 05:18:14;;;;;;;398.17;152.77;;;;;;;;;;5015147;28;20691;-54
2024/01/16 05:20:40;;;;;;;426.77;166.03;;;;;;;;;;5005935;28;20296;-53
2024/01/16 05:23:06;;;;;;;410.67;161.83;;;;;;;;;;5009130;28;20366;-53
2024/01/16 05:25:32;;;;;;;368.83;142.37;;;;;;;;;;5003772;28;20200;-54
2024/01/16 05:27:58;;;;;;;375.77;146.13;;;;;;;;;;5003811;28;20240;-54
2024/01/16 05:30:24;;;;;;;391.27;152.40;;;;;;;;;;5007154;28;20220;-54
2024/01/16 05:32:52;;;;;;;372.40;146.47;;;;;;;;;;5004880;28;20251;-54
2024/01/16 05:35:17;;;;;;;364.40;140.53;;;;;;;;;;5007038;28;20211;-53
2024/01/16 05:37:43;;;;;;;380.17;147.40;;;;;;;;;;5004340;28;20192;-53
2024/01/16 05:40:10;;;;;;;378.90;144.53;;;;;;;;;;5004436;28;20529;-54
2024/01/16 05:42:36;;;;;;;418.43;166.73;;;;;;;;;;5000977;28;20227;-54
2024/01/16 05:45:02;;;;;;;440.83;173.43;;;;;;;;;;4997080;28;20813;-53
2024/01/16 05:47:30;;;;;;;395.77;156.37;;;;;;;;;;4999866;28;20220;-53
2024/01/16 05:49:56;;;;;;;387.13;150.23;;;;;;;;;;5006428;28;20195;-53
2024/01/16 05:52:22;;;;;;;365.77;141.70;;;;;;;;;;5000826;28;20224;-54
2024/01/16 05:54:48;;;;;;;375.20;145.60;;;;;;;;;;5004753;28;20212;-54
2024/01/16 05:57:14;;;;;;;418.00;164.57;;;;;;;;;;5004124;28;20320;-54
2024/01/16 05:59:41;;;;;;;399.80;155.13;;;;;;;;;;5007053;28;20216;-54
2024/01/16 06:02:07;;;;;;;379.90;142.57;;;;;;;;;;5003131;28;20204;-54
2024/01/16 06:04:33;;;;;;;375.33;145.63;;;;;;;;;;5007745;28;20542;-54
2024/01/16 06:06:59;;;;;;;348.53;132.53;;;;;;;;;;5002799;28;20230;-54
2024/01/16 06:09:25;;;;;;;377.37;142.73;;;;;;;;;;5008930;28;20211;-54
2024/01/16 06:11:51;;;;;;;418.53;162.97;;;;;;;;;;5007047;28;20204;-54
2024/01/16 06:14:21;;;;;;;379.27;152.03;;;;;;;;;;5004660;28;20208;-54
2024/01/16 06:16:48;;;;;;;388.63;150.70;;;;;;;;;;5005558;28;20211;-54
2024/01/16 06:19:14;;;;;;;375.33;148.43;;;;;;;;;;5009084;28;20244;-54
2024/01/16 06:21:40;;;;;;;429.27;176.77;;;;;;;;;;5009944;28;20220;-56
2024/01/16 06:24:07;;;;;;;358.80;139.43;;;;;;;;;;5008572;28;20235;-55
2024/01/16 06:26:33;;;;;;;394.33;151.33;;;;;;;;;;5009761;28;20295;-54
2024/01/16 06:28:59;;;;;;;466.10;188.63;;;;;;;;;;4984610;28;20200;-55
2024/01/16 06:31:26;;;;;;;454.77;183.03;;;;;;;;;;5003373;28;20232;-55
2024/01/16 06:33:52;;;;;;;398.43;156.97;;;;;;;;;;4992923;28;20220;-55
2024/01/16 06:36:18;;;;;;;454.13;185.60;;;;;;;;;;4995802;28;21126;-53
2024/01/16 06:38:44;;;;;;;432.50;175.10;;;;;;;;;;4994671;28;20228;-52
2024/01/16 06:41:10;;;;;;;375.13;144.90;;;;;;;;;;5003517;28;20706;-53
2024/01/16 06:43:35;;;;;;;377.47;148.13;;;;;;;;;;5001706;28;20348;-53
2024/01/16 06:46:01;;;;;;;370.53;147.87;;;;;;;;;;4992595;28;20219;-58
2024/01/16 06:48:27;;;;;;;341.50;131.10;;;;;;;;;;5001691;28;20635;-56
2024/01/16 06:50:53;;;;;;;375.37;148.47;;;;;;;;;;5005317;28;20263;-55
2024/01/16 06:53:19;;;;;;;389.23;155.90;;;;;;;;;;4999528;28;20255;-55
2024/01/16 06:55:45;;;;;;;405.63;165.10;;;;;;;;;;5002613;28;20184;-57
2024/01/16 06:58:11;;;;;;;358.47;137.73;;;;;;;;;;5006336;28;20243;-52
2024/01/16 07:00:37;;;;;;;375.47;146.73;;;;;;;;;;4997822;28;20265;-52
2024/01/16 07:03:03;;;;;;;426.23;167.23;;;;;;;;;;4998267;28;20702;-55
2024/01/16 07:05:29;;;;;;;418.13;160.20;;;;;;;;;;4995451;28;20229;-55
2024/01/16 07:07:55;;;;;;;400.93;154.77;;;;;;;;;;5007797;28;20249;-53
2024/01/16 07:10:23;;;;;;;398.53;155.10;;;;;;;;;;4985482;28;20448;-54
2024/01/16 07:12:49;;;;;;;419.87;167.43;;;;;;;;;;4997811;28;20743;-53
2024/01/16 07:15:15;;;;;;;399.53;158.90;;;;;;;;;;5006498;28;20585;-53
2024/01/16 07:17:41;;;;;;;399.33;159.07;;;;;;;;;;4993819;28;20219;-54
2024/01/16 07:20:08;;;;;;;347.67;132.60;;;;;;;;;;5006473;28;20220;-52
2024/01/16 07:22:34;;;;;;;380.27;143.47;;;;;;;;;;5001729;28;20211;-53
2024/01/16 07:25:00;;;;;;;376.83;143.40;;;;;;;;;;5009757;28;20236;-56
2024/01/16 07:27:26;;;;;;;392.97;154.67;;;;;;;;;;5002718;28;20208;-52
2024/01/16 07:29:52;;;;;;;412.97;160.47;;;;;;;;;;4984280;28;20208;-55
2024/01/16 07:32:18;;;;;;;379.10;146.83;;;;;;;;;;5015265;28;20748;-53
2024/01/16 07:34:44;;;;;;;377.83;145.93;;;;;;;;;;5002531;28;20188;-55
2024/01/16 07:37:10;;;;;;;374.57;141.53;;;;;;;;;;5009935;28;20238;-53
2024/01/16 07:39:36;;;;;;;391.43;150.53;;;;;;;;;;5018954;28;20702;-54
2024/01/16 07:42:02;;;;;;;370.30;142.87;;;;;;;;;;4999299;28;20212;-55
2024/01/16 07:44:28;;;;;;;400.33;152.57;;;;;;;;;;5024869;28;20273;-55
2024/01/16 07:46:54;;;;;;;382.40;146.50;;;;;;;;;;5020264;28;20631;-54
2024/01/16 07:49:20;;;;;;;382.33;148.47;;;;;;;;;;5018611;28;20251;-54
2024/01/16 07:51:46;;;;;;;372.23;143.43;;;;;;;;;;5015548;28;20244;-54
2024/01/16 07:54:13;;;;;;;372.20;141.00;;;;;;;;;;5012642;28;20650;-55
2024/01/16 07:56:39;;;;;;;400.50;153.87;;;;;;;;;;5013871;28;20712;-54
2024/01/16 07:59:05;;;;;;;399.97;153.67;;;;;;;;;;5028097;28;20190;-55
2024/01/16 08:01:32;;;;;;;361.67;137.63;;;;;;;;;;5023330;28;20175;-55
2024/01/16 08:03:58;;;;;;;380.40;148.43;;;;;;;;;;5018593;28;20230;-55
2024/01/16 08:06:24;;;;;;;389.93;155.77;;;;;;;;;;5030050;28;20285;-55
2024/01/16 08:08:50;;;;;;;426.60;166.27;;;;;;;;;;5011800;28;20220;-55
2024/01/16 08:11:16;;;;;;;390.00;150.20;;;;;;;;;;5022166;28;20594;-54
2024/01/16 08:13:42;;;;;;;412.67;161.33;;;;;;;;;;5011776;28;20220;-55
2024/01/16 08:16:08;;;;;;;365.17;142.07;;;;;;;;;;5025993;28;20554;-55
2024/01/16 08:18:34;;;;;;;385.23;146.20;;;;;;;;;;5011928;28;20346;-55
2024/01/16 08:21:00;;;;;;;356.17;134.73;;;;;;;;;;5025925;28;20925;-55
2024/01/16 08:23:26;;;;;;;404.17;154.13;;;;;;;;;;5019166;28;20222;-57
2024/01/16 08:25:52;;;;;;;389.40;148.00;;;;;;;;;;5027556;28;20207;-56
2024/01/16 08:28:19;;;;;;;399.83;151.57;;;;;;;;;;5014587;28;20208;-55
2024/01/16 08:30:45;;;;;;;387.07;145.97;;;;;;;;;;5022831;28;20728;-55
2024/01/16 08:33:12;;;;;;;382.27;144.33;;;;;;;;;;5026710;28;20208;-54
2024/01/16 08:35:38;;;;;;;446.00;178.67;;;;;;;;;;5008047;28;20216;-56
2024/01/16 08:38:04;;;;;;;415.47;160.73;;;;;;;;;;4998933;28;20867;-55
2024/01/16 08:40:31;;;;;;;375.53;144.20;;;;;;;;;;5011259;28;20563;-55
2024/01/16 08:42:57;;;;;;;409.83;154.93;;;;;;;;;;5017561;28;20770;-56
2024/01/16 08:45:23;;;;;;;367.17;137.73;;;;;;;;;;5013849;28;20235;-55
2024/01/16 08:47:49;;;;;;;450.67;176.13;;;;;;;;;;5013520;28;20634;-55
2024/01/16 08:50:15;;;;;;;371.13;141.80;;;;;;;;;;5006220;28;20185;-55
2024/01/16 08:52:41;;;;;;;365.40;140.70;;;;;;;;;;5020647;28;20263;-55
2024/01/16 08:55:09;;;;;;;375.13;142.70;;;;;;;;;;5030647;28;20223;-55
2024/01/16 08:57:35;;;;;;;384.57;144.53;;;;;;;;;;5015197;28;21391;-56
2024/01/16 09:00:02;;;;;;;383.57;144.00;;;;;;;;;;5027072;28;20215;-57
2024/01/16 09:02:28;;;;;;;377.53;140.53;;;;;;;;;;5019876;28;20226;-55
2024/01/16 09:04:55;;;;;;;395.70;148.63;;;;;;;;;;5025075;28;20205;-56
2024/01/16 09:07:21;;;;;;;388.40;145.50;;;;;;;;;;5022516;28;20840;-55
2024/01/16 09:09:47;;;;;;;441.13;169.57;;;;;;;;;;5010538;28;20307;-55
2024/01/16 09:12:13;;;;;;;372.17;138.97;;;;;;;;;;5009189;28;20262;-55
2024/01/16 09:14:39;;;;;;;367.27;141.27;;;;;;;;;;5023965;28;20751;-54
2024/01/16 09:17:05;;;;;;;381.10;144.93;;;;;;;;;;5017576;28;20188;-55
2024/01/16 09:19:31;;;;;;;383.43;142.80;;;;;;;;;;5004486;28;20280;-55
2024/01/16 09:21:57;;;;;;;403.23;152.53;;;;;;;;;;5005855;28;20764;-55
2024/01/16 09:24:23;;;;;;;408.50;160.07;;;;;;;;;;5001058;28;20235;-54
2024/01/16 09:26:49;;;;;;;435.57;171.10;;;;;;;;;;5002688;28;20217;-52
2024/01/16 09:29:16;;;;;;;381.03;144.63;;;;;;;;;;5027681;28;20443;-52
2024/01/16 09:31:42;;;;;;;481.63;191.30;;;;;;;;;;5010618;28;20200;-52
2024/01/16 09:34:08;;;;;;;411.17;158.70;;;;;;;;;;4994383;28;20359;-52
2024/01/16 09:36:35;;;;;;;357.47;132.30;;;;;;;;;;5005851;28;20276;-52
2024/01/16 09:39:02;;;;;;;410.47;159.67;;;;;;;;;;5003058;28;20220;-52
2024/01/16 09:41:28;;;;;;;445.73;178.73;;;;;;;;;;4999416;28;20222;-52
2024/01/16 09:43:54;;;;;;;419.60;157.57;;;;;;;;;;5003760;28;20216;-52
2024/01/16 09:46:24;;;;;;;420.17;164.80;;;;;;;;;;4994767;28;20666;-52
2024/01/16 09:48:51;;;;;;;445.77;173.50;;;;;;;;;;4995111;28;20330;-51
2024/01/16 09:51:18;;;;;;;420.30;158.07;;;;;;;;;;4995881;28;20219;-52
2024/01/16 09:53:44;;;;;;;484.83;198.00;;;;;;;;;;4994037;28;20583;-52
2024/01/16 09:56:15;;;;;;;423.90;163.53;;;;;;;;;;4993920;28;20181;-52
2024/01/16 09:58:41;;;;;;;427.87;167.47;;;;;;;;;;4999446;28;20641;-52
2024/01/16 10:01:07;;;;;;;374.93;143.07;;;;;;;;;;4999992;28;20579;-52
2024/01/16 10:03:34;;;;;;;386.13;148.07;;;;;;;;;;5002617;28;20361;-52
2024/01/16 10:06:04;;;;;;;355.57;133.27;;;;;;;;;;5000670;28;20231;-52
2024/01/16 10:08:31;;;;;;;402.97;151.27;;;;;;;;;;5001471;28;20371;-52
2024/01/16 10:10:57;;;;;;;470.70;187.80;;;;;;;;;;4992645;28;21700;-52
2024/01/16 10:13:23;;;;;;;405.93;158.27;;;;;;;;;;4985839;28;20238;-52
2024/01/16 10:15:55;;;;;;;450.20;174.30;;;;;;;;;;4993808;28;20570;-52
2024/01/16 10:18:24;;;;;;;441.70;172.10;;;;;;;;;;4994516;28;20786;-52
2024/01/16 10:20:50;;;;;;;381.03;143.83;;;;;;;;;;5003350;28;20231;-52
2024/01/16 10:23:26;;;;;;;453.50;178.43;;;;;;;;;;5002941;28;20662;-52
2024/01/16 10:26:07;;;;;;;444.30;171.60;;;;;;;;;;5003470;28;20328;-52
2024/01/16 10:28:34;;;;;;;440.33;173.07;;;;;;;;;;4993257;28;20217;-52
2024/01/16 10:31:18;;;;;;;465.30;180.73;;;;;;;;;;4997720;28;20591;-52
2024/01/16 10:33:44;;;;;;;444.30;173.50;;;;;;;;;;5001802;28;20276;-52
2024/01/16 10:36:13;;;;;;;418.53;160.90;;;;;;;;;;5002706;28;20532;-52
2024/01/16 10:38:40;;;;;;;446.63;170.97;;;;;;;;;;4993058;28;20216;-52
2024/01/16 10:41:17;;;;;;;396.03;149.57;;;;;;;;;;4995267;28;20196;-52
2024/01/16 10:43:44;;;;;;;453.80;183.40;;;;;;;;;;5003222;28;20287;-51
2024/01/16 10:46:17;;;;;;;427.93;162.50;;;;;;;;;;4999040;28;20837;-51
2024/01/16 10:48:58;;;;;;;418.87;159.80;;;;;;;;;;4996627;28;20280;-52
2024/01/16 10:51:26;;;;;;;418.10;159.10;;;;;;;;;;4995321;28;20315;-52
2024/01/16 10:53:56;;;;;;;451.17;167.53;;;;;;;;;;4977722;28;20653;-52
2024/01/16 10:56:22;;;;;;;476.77;180.07;;;;;;;;;;4991685;28;20237;-51
2024/01/16 10:58:50;;;;;;;425.43;158.07;;;;;;;;;;4992187;28;20176;-52
2024/01/16 11:01:17;;;;;;;380.60;140.67;;;;;;;;;;4990728;28;20208;-51
2024/01/16 11:03:50;;;;;;;393.33;149.43;;;;;;;;;;5002624;28;20220;-51
2024/01/16 11:06:16;;;;;;;425.70;170.37;;;;;;;;;;5002088;28;20579;-51
2024/01/16 11:08:42;;;;;;;440.27;172.83;;;;;;;;;;4997522;28;20216;-51
2024/01/16 11:11:09;;;;;;;403.80;153.23;;;;;;;;;;4999634;28;20192;-51
2024/01/16 11:13:35;;;;;;;431.33;168.97;;;;;;;;;;4994133;28;20560;-51
2024/01/16 11:16:04;;;;;;;427.10;163.90;;;;;;;;;;5003598;28;20220;-50
2024/01/16 11:18:31;;;;;;;448.87;170.67;;;;;;;;;;5005497;28;20627;-50
2024/01/16 11:20:58;;;;;;;442.70;172.37;;;;;;;;;;5000067;28;20269;-51
2024/01/16 11:23:24;;;;;;;446.53;175.93;;;;;;;;;;4995479;28;20635;-51
2024/01/16 11:25:50;;;;;;;463.97;185.07;;;;;;;;;;4996596;28;20205;-51
2024/01/16 11:28:16;;;;;;;379.10;140.03;;;;;;;;;;5011945;28;20774;-51
2024/01/16 11:30:43;;;;;;;406.47;155.03;;;;;;;;;;5002546;28;20212;-50
2024/01/16 11:33:28;;;;;;;470.03;184.87;;;;;;;;;;5005302;28;20216;-50
2024/01/16 11:35:54;;;;;;;424.03;164.03;;;;;;;;;;4997353;28;20619;-50
2024/01/16 11:38:21;;;;;;;402.90;150.10;;;;;;;;;;5004232;28;20223;-50
2024/01/16 11:40:48;;;;;;;393.47;149.33;;;;;;;;;;5001939;28;20202;-51
2024/01/16 11:43:32;;;;;;;423.73;162.10;;;;;;;;;;5006532;28;20228;-50
2024/01/16 11:45:58;;;;;;;413.23;155.07;;;;;;;;;;5011016;28;20583;-50
2024/01/16 11:48:24;;;;;;;397.00;148.80;;;;;;;;;;5004527;28;20220;-50
2024/01/16 11:50:51;;;;;;;408.87;155.90;;;;;;;;;;4999022;28;20225;-51
2024/01/16 11:53:40;;;;;;;458.53;168.50;;;;;;;;;;4998303;28;20217;-51
2024/01/16 11:56:16;;;;;;;407.20;150.40;;;;;;;;;;4996477;28;20196;-51
2024/01/16 11:59:01;;;;;;;420.47;158.80;;;;;;;;;;4995502;28;20278;-51
2024/01/16 12:01:27;;;;;;;436.10;159.87;;;;;;;;;;4994765;28;20219;-51
2024/01/16 12:04:02;;;;;;;430.90;168.67;;;;;;;;;;4998043;28;20221;-51
2024/01/16 12:06:28;;;;;;;445.70;176.40;;;;;;;;;;5002723;28;20210;-51
2024/01/16 12:08:54;;;;;;;452.03;177.73;;;;;;;;;;4991147;28;20583;-50
2024/01/16 12:11:20;;;;;;;395.57;148.93;;;;;;;;;;5007244;28;20223;-51
2024/01/16 12:14:01;;;;;;;425.90;161.83;;;;;;;;;;5005701;28;20213;-51
2024/01/16 12:16:27;;;;;;;476.70;200.50;;;;;;;;;;5003177;28;20244;-50
2024/01/16 12:19:04;;;;;;;454.47;178.73;;;;;;;;;;5002462;28;20262;-50
2024/01/16 12:21:30;;;;;;;432.73;166.33;;;;;;;;;;4999522;28;20667;-51
2024/01/16 12:23:56;;;;;;;444.67;168.33;;;;;;;;;;5002997;28;20224;-51
2024/01/16 12:26:22;;;;;;;430.27;169.57;;;;;;;;;;5008176;28;20204;-51
2024/01/16 12:28:51;;;;;;;403.03;154.03;;;;;;;;;;5004376;28;20194;-51
2024/01/16 12:31:20;;;;;;;410.93;155.90;;;;;;;;;;5000709;28;20214;-51
2024/01/16 12:33:46;;;;;;;402.00;156.47;;;;;;;;;;4999740;28;20709;-51
2024/01/16 12:36:12;;;;;;;421.13;164.57;;;;;;;;;;5001837;28;20359;-51
2024/01/16 12:38:38;;;;;;;414.80;157.37;;;;;;;;;;5001372;28;20277;-51
2024/01/16 12:41:07;;;;;;;397.67;153.00;;;;;;;;;;5004929;28;20176;-51
2024/01/16 12:43:33;;;;;;;425.77;164.30;;;;;;;;;;4998449;28;20216;-51
2024/01/16 12:45:59;;;;;;;475.13;191.07;;;;;;;;;;4995888;28;20468;-51
2024/01/16 12:48:26;;;;;;;414.43;158.50;;;;;;;;;;4996321;28;20496;-50
2024/01/16 12:50:59;;;;;;;407.83;155.73;;;;;;;;;;5002466;28;20212;-51
2024/01/16 12:53:25;;;;;;;437.27;168.20;;;;;;;;;;5000008;28;20244;-50
2024/01/16 12:55:59;;;;;;;423.30;161.37;;;;;;;;;;5005866;28;20663;-51
2024/01/16 12:58:28;;;;;;;385.37;143.33;;;;;;;;;;5007079;28;20340;-50
2024/01/16 13:00:57;;;;;;;392.07;148.63;;;;;;;;;;4998089;28;20227;-51
2024/01/16 13:03:26;;;;;;;398.33;148.07;;;;;;;;;;4999623;28;20220;-51
2024/01/16 13:05:56;;;;;;;419.47;158.93;;;;;;;;;;5001782;28;20228;-51
2024/01/16 13:08:24;;;;;;;350.73;132.37;;;;;;;;;;5000973;28;20227;-51
2024/01/16 13:11:03;;;;;;;371.87;138.20;;;;;;;;;;5001655;28;20188;-51
2024/01/16 13:13:29;;;;;;;409.07;155.53;;;;;;;;;;4997891;28;20220;-51
2024/01/16 13:15:57;;;;;;;419.47;160.67;;;;;;;;;;4996237;28;20613;-51
2024/01/16 13:18:23;;;;;;;428.63;163.53;;;;;;;;;;4998832;28;20269;-52
2024/01/16 13:20:50;;;;;;;440.47;169.57;;;;;;;;;;4995470;28;20213;-52
2024/01/16 13:23:16;;;;;;;436.43;167.27;;;;;;;;;;5009392;28;20528;-51
2024/01/16 13:25:45;;;;;;;407.80;152.03;;;;;;;;;;5004370;28;20575;-51
2024/01/16 13:28:14;;;;;;;391.10;146.73;;;;;;;;;;5005047;28;20213;-51
2024/01/16 13:30:43;;;;;;;397.60;152.67;;;;;;;;;;5001662;28;20243;-51
2024/01/16 13:33:10;;;;;;;430.20;165.97;;;;;;;;;;4999175;28;20580;-51
2024/01/16 13:35:36;;;;;;;466.03;183.50;;;;;;;;;;4987467;28;20301;-52
2024/01/16 13:38:03;;;;;;;391.97;147.50;;;;;;;;;;5005685;28;20246;-51
2024/01/16 13:40:29;;;;;;;400.83;149.23;;;;;;;;;;5001828;28;20669;-51
2024/01/16 13:42:56;;;;;;;415.10;153.83;;;;;;;;;;4998514;28;20320;-51
2024/01/16 13:45:22;;;;;;;426.03;168.07;;;;;;;;;;5005028;28;20232;-51
2024/01/16 13:47:48;;;;;;;388.17;144.53;;;;;;;;;;4999252;28;20223;-51
2024/01/16 13:50:15;;;;;;;470.30;189.33;;;;;;;;;;4993816;28;20656;-51
2024/01/16 13:52:41;;;;;;;398.07;150.67;;;;;;;;;;5003103;28;20224;-51